Time;durP1;ratioP1;P1;durP2;ratioP2;P2;SDS_P1;SDS_P2;PMS_P1;PMS_P2;Temp;Humidity;BMP_temperature;BMP_pressure;BME280_temperature;BME280_humidity;BME280_pressure;Samples;Min_cycle;Max_cycle;Signal;HPM_P1;HPM_P2
2023/03/27 00:00:22;;;;;;;3.07;1.37;;;;;;;8.74;69.90;98708.13;4893639;29;20885;-80
2023/03/27 00:02:48;;;;;;;2.88;1.52;;;;;;;8.75;69.77;98709.78;4892158;29;20457;-81
2023/03/27 00:05:15;;;;;;;4.20;1.38;;;;;;;8.77;70.17;98723.63;4890373;29;20507;-80
2023/03/27 00:07:41;;;;;;;2.63;1.35;;;;;;;8.75;70.36;98720.25;4891374;29;20471;-81
2023/03/27 00:10:08;;;;;;;2.93;1.30;;;;;;;8.69;70.85;98728.56;4891305;29;20771;-80
2023/03/27 00:12:34;;;;;;;2.55;1.25;;;;;;;8.66;70.96;98739.25;4888626;29;20478;-80
2023/03/27 00:14:59;;;;;;;2.70;1.30;;;;;;;8.64;70.87;98750.69;4888726;29;20230;-80
2023/03/27 00:17:25;;;;;;;1.40;1.00;;;;;;;8.67;70.93;98751.38;4892032;29;20214;-81
2023/03/27 00:19:50;;;;;;;1.43;0.90;;;;;;;8.67;70.80;98756.63;4891290;29;20218;-81
2023/03/27 00:22:16;;;;;;;1.10;0.90;;;;;;;8.65;70.75;98756.75;4891691;29;20207;-80
2023/03/27 00:24:41;;;;;;;1.80;1.20;;;;;;;8.62;71.17;98760.41;4890158;29;20210;-81
2023/03/27 00:27:08;;;;;;;1.23;0.90;;;;;;;8.62;71.17;98763.03;4892040;29;20214;-80
2023/03/27 00:29:33;;;;;;;1.50;1.40;;;;;;;8.63;71.20;98762.06;4891176;29;20207;-80
2023/03/27 00:31:59;;;;;;;1.80;1.10;;;;;;;8.65;71.29;98761.97;4891721;29;20320;-81
2023/03/27 00:34:24;;;;;;;2.23;1.30;;;;;;;8.66;71.21;98771.50;4891881;29;20585;-80
2023/03/27 00:36:52;;;;;;;2.90;1.37;;;;;;;8.65;71.24;98775.06;4892002;29;20234;-80
2023/03/27 00:39:18;;;;;;;4.13;1.08;;;;;;;8.66;71.43;98781.13;4894361;29;20222;-80
2023/03/27 00:41:44;;;;;;;1.07;0.97;;;;;;;8.70;71.33;98777.38;4892977;29;23127;-80
2023/03/27 00:44:30;;;;;;;1.17;1.07;;;;;;;8.73;71.32;98783.22;4894390;29;20199;-80
2023/03/27 00:46:56;;;;;;;1.52;1.23;;;;;;;8.74;71.34;98787.50;4893715;29;20494;-80
2023/03/27 00:49:25;;;;;;;1.65;1.00;;;;;;;8.77;71.27;98789.06;4880528;29;20684;-80
2023/03/27 00:51:52;;;;;;;1.75;1.20;;;;;;;8.76;71.39;98793.47;4896510;29;20334;-81
2023/03/27 00:54:25;;;;;;;6.50;1.23;;;;;;;8.77;71.28;98796.94;4898184;29;20213;-80
2023/03/27 00:56:57;;;;;;;3.42;1.40;;;;;;;8.76;71.47;98801.34;4887664;29;20264;-80
2023/03/27 00:59:30;;;;;;;2.08;1.30;;;;;;;8.76;71.50;98808.38;4895254;29;20238;-81
2023/03/27 01:01:57;;;;;;;3.80;1.40;;;;;;;8.73;71.71;98804.19;4895701;29;20263;-80
2023/03/27 01:04:23;;;;;;;2.08;1.50;;;;;;;8.74;71.61;98805.00;4896072;29;20843;-80
2023/03/27 01:06:52;;;;;;;1.93;1.30;;;;;;;8.76;71.80;98810.97;4880671;29;20230;-81
2023/03/27 01:09:19;;;;;;;1.50;1.10;;;;;;;8.76;71.75;98816.22;4903882;29;20222;-80
2023/03/27 01:11:57;;;;;;;3.72;1.20;;;;;;;8.75;71.85;98812.78;4890346;29;20227;-80
2023/03/27 01:14:41;;;;;;;2.88;1.10;;;;;;;8.76;71.89;98822.28;4890469;29;20265;-81
2023/03/27 01:17:31;;;;;;;1.10;1.00;;;;;;;8.78;71.76;98824.81;4901480;29;20247;-81
2023/03/27 01:20:16;;;;;;;2.13;1.92;;;;;;;8.80;71.86;98833.38;4900664;29;20215;-80
2023/03/27 01:23:02;;;;;;;2.15;1.10;;;;;;;8.80;71.72;98843.84;4888796;29;20682;-80
2023/03/27 01:25:37;;;;;;;7.13;1.23;;;;;;;8.79;71.72;98844.81;4878771;29;20250;-80
2023/03/27 01:28:02;;;;;;;1.13;1.02;;;;;;;8.78;71.63;98837.91;4882453;29;20788;-80
2023/03/27 01:30:37;;;;;;;0.80;0.80;;;;;;;8.77;71.49;98846.69;4876975;29;20759;-81
2023/03/27 01:33:26;;;;;;;2.13;0.80;;;;;;;8.79;71.39;98850.88;4900597;29;20475;-80
2023/03/27 01:36:13;;;;;;;1.10;0.90;;;;;;;8.81;71.54;98854.22;4896269;29;20496;-80
2023/03/27 01:39:05;;;;;;;1.00;0.70;;;;;;;8.83;71.18;98859.34;4884870;29;20668;-79
2023/03/27 01:41:41;;;;;;;3.08;0.90;;;;;;;8.84;71.13;98868.91;4890950;29;20722;-79
2023/03/27 01:44:16;;;;;;;0.85;0.65;;;;;;;8.85;70.79;98863.53;4895093;29;20226;-79
2023/03/27 01:46:52;;;;;;;0.77;0.75;;;;;;;8.86;70.68;98867.03;4893431;29;20718;-80
2023/03/27 01:49:25;;;;;;;1.02;0.73;;;;;;;8.88;70.69;98867.72;4886454;29;20219;-78
2023/03/27 01:51:56;;;;;;;0.85;0.80;;;;;;;8.89;70.53;98866.81;4880157;29;20223;-78
2023/03/27 01:54:30;;;;;;;1.10;0.90;;;;;;;8.89;70.39;98872.03;4879233;29;20214;-78
2023/03/27 01:57:14;;;;;;;1.02;0.82;;;;;;;8.91;70.22;98880.66;4884466;29;20223;-78
2023/03/27 01:59:44;;;;;;;1.00;0.80;;;;;;;8.94;70.11;98887.41;4877312;29;20335;-79
2023/03/27 02:02:21;;;;;;;0.90;0.60;;;;;;;8.94;69.96;98888.28;4893421;29;20203;-79
2023/03/27 02:05:05;;;;;;;1.00;0.90;;;;;;;8.96;69.86;98893.41;4885015;29;20297;-79
2023/03/27 02:07:42;;;;;;;1.45;1.20;;;;;;;8.94;69.70;98890.91;4880538;29;20716;-79
2023/03/27 02:10:14;;;;;;;0.80;0.70;;;;;;;8.95;69.72;98892.56;4894039;29;20645;-80
2023/03/27 02:12:48;;;;;;;1.00;0.90;;;;;;;8.97;69.68;98903.78;4878171;29;20563;-79
2023/03/27 02:15:20;;;;;;;0.93;0.85;;;;;;;8.96;69.43;98902.09;4872298;29;20566;-79
2023/03/27 02:18:03;;;;;;;1.23;1.00;;;;;;;8.96;69.31;98899.47;4881360;29;20242;-81
2023/03/27 02:20:29;;;;;;;1.45;0.90;;;;;;;8.97;69.57;98902.97;4882022;29;20253;-79
2023/03/27 02:22:59;;;;;;;1.38;0.80;;;;;;;9.00;69.47;98910.59;4896050;29;20230;-79
2023/03/27 02:25:33;;;;;;;1.08;0.98;;;;;;;9.00;69.35;98918.47;4895631;29;20841;-79
2023/03/27 02:28:30;;;;;;;2.33;1.00;;;;;;;8.99;69.28;98915.00;4883526;29;20213;-79
2023/03/27 02:31:08;;;;;;;3.03;1.08;;;;;;;8.97;69.45;98918.66;4882613;29;20625;-79
2023/03/27 02:34:01;;;;;;;1.00;0.90;;;;;;;8.95;69.17;98931.84;4896802;29;20221;-79
2023/03/27 02:36:43;;;;;;;1.55;1.20;;;;;;;8.91;69.42;98925.16;4894832;29;20235;-79
2023/03/27 02:39:19;;;;;;;1.80;1.35;;;;;;;8.86;69.37;98935.13;4879863;29;20361;-79
2023/03/27 02:41:56;;;;;;;1.33;1.20;;;;;;;8.85;69.65;98928.19;4884957;29;20194;-79
2023/03/27 02:44:50;;;;;;;1.80;1.23;;;;;;;8.82;69.59;98946.72;4870512;29;20211;-79
2023/03/27 02:47:27;;;;;;;1.70;1.50;;;;;;;8.80;69.78;98956.44;4879788;29;20217;-80
2023/03/27 02:50:08;;;;;;;4.68;2.13;;;;;;;8.77;69.32;98962.72;4880435;29;20297;-79
2023/03/27 02:52:47;;;;;;;3.67;2.30;;;;;;;8.77;69.32;98961.91;4895984;29;20222;-80
2023/03/27 02:55:23;;;;;;;2.30;1.83;;;;;;;8.74;69.21;98967.34;4880954;29;20226;-79
2023/03/27 02:57:58;;;;;;;3.20;2.53;;;;;;;8.70;69.39;98984.22;4878595;29;20220;-79
2023/03/27 03:00:39;;;;;;;3.60;3.03;;;;;;;8.69;69.03;98987.75;4884243;29;20225;-79
2023/03/27 03:03:37;;;;;;;5.22;3.28;;;;;;;8.66;68.87;98996.66;4877128;29;20660;-79
2023/03/27 03:06:13;;;;;;;5.10;3.97;;;;;;;8.63;67.96;99002.09;4874470;29;20590;-79
2023/03/27 03:08:38;;;;;;;5.13;3.33;;;;;;;8.58;66.99;98999.75;4878682;29;20229;-80
2023/03/27 03:11:09;;;;;;;6.03;3.78;;;;;;;8.55;66.35;99013.03;4876554;29;20683;-79
2023/03/27 03:13:35;;;;;;;5.47;3.13;;;;;;;8.53;66.25;99021.94;4891527;29;20306;-79
2023/03/27 03:16:00;;;;;;;4.10;3.13;;;;;;;8.51;66.05;99037.75;4895561;29;20627;-80
2023/03/27 03:18:26;;;;;;;8.00;4.63;;;;;;;8.46;65.29;99039.00;4892523;29;20475;-79
2023/03/27 03:20:52;;;;;;;8.17;4.77;;;;;;;8.45;65.25;99050.38;4908890;29;21237;-80
2023/03/27 03:23:21;;;;;;;8.95;4.15;;;;;;;8.43;64.58;99058.34;4869838;29;20207;-80
2023/03/27 03:25:51;;;;;;;8.00;5.20;;;;;;;8.39;64.27;99062.91;4887047;29;20246;-80
2023/03/27 03:28:17;;;;;;;7.18;4.35;;;;;;;8.33;63.41;99078.16;4892087;29;20257;-80
2023/03/27 03:30:47;;;;;;;7.75;4.18;;;;;;;8.29;63.55;99069.66;4891932;29;20203;-80
2023/03/27 03:33:13;;;;;;;7.40;4.60;;;;;;;8.27;63.69;99089.00;4883315;29;20229;-80
2023/03/27 03:35:39;;;;;;;10.02;6.00;;;;;;;8.26;63.65;99088.13;4882192;29;20469;-80
2023/03/27 03:38:12;;;;;;;14.55;5.75;;;;;;;8.24;63.49;99094.44;4875359;29;20238;-80
2023/03/27 03:40:44;;;;;;;8.30;4.85;;;;;;;8.17;63.28;99113.09;4892864;29;20207;-79
2023/03/27 03:43:10;;;;;;;4.90;3.50;;;;;;;8.15;63.34;99114.97;4870811;29;20202;-79
2023/03/27 03:45:36;;;;;;;8.90;5.22;;;;;;;8.11;63.35;99120.50;4895330;29;20851;-80
2023/03/27 03:48:01;;;;;;;6.47;4.97;;;;;;;8.09;63.54;99120.59;4892207;29;20557;-80
2023/03/27 03:50:27;;;;;;;5.83;4.83;;;;;;;8.09;63.78;99133.66;4895188;29;20203;-80
2023/03/27 03:52:52;;;;;;;8.87;4.97;;;;;;;8.07;63.85;99143.38;4892203;29;20222;-79
2023/03/27 03:55:18;;;;;;;5.37;4.23;;;;;;;8.05;63.68;99153.09;4878033;29;20588;-79
2023/03/27 03:57:46;;;;;;;7.93;4.97;;;;;;;8.07;63.88;99142.53;4878223;29;20638;-80
2023/03/27 04:00:17;;;;;;;10.95;5.30;;;;;;;8.06;63.91;99160.00;4890753;29;20221;-80
2023/03/27 04:02:48;;;;;;;8.10;4.20;;;;;;;8.06;63.92;99165.25;4872370;29;20248;-80
2023/03/27 04:05:15;;;;;;;9.93;5.80;;;;;;;8.05;64.09;99166.19;4893250;29;20581;-80
2023/03/27 04:07:41;;;;;;;10.55;5.63;;;;;;;8.03;63.57;99175.88;4875394;29;20470;-79
2023/03/27 04:10:19;;;;;;;7.25;4.97;;;;;;;7.95;62.99;99183.34;4892729;29;20213;-80
2023/03/27 04:12:47;;;;;;;11.57;5.17;;;;;;;7.93;63.02;99200.91;4892861;29;20227;-80
2023/03/27 04:15:17;;;;;;;9.80;4.68;;;;;;;7.90;62.82;99199.31;4882323;29;20483;-79
2023/03/27 04:17:59;;;;;;;4.68;3.50;;;;;;;7.88;62.61;99216.84;4871329;29;20911;-79
2023/03/27 04:20:27;;;;;;;8.37;5.07;;;;;;;7.88;62.55;99221.25;4892106;29;20616;-79
2023/03/27 04:22:54;;;;;;;8.68;5.68;;;;;;;7.85;62.36;99229.28;4876998;29;20207;-79
2023/03/27 04:25:28;;;;;;;7.17;4.03;;;;;;;7.82;62.48;99234.69;4886381;29;20767;-79
2023/03/27 04:27:53;;;;;;;12.57;4.43;;;;;;;7.79;61.96;99242.72;4877346;29;21273;-79
2023/03/27 04:30:24;;;;;;;5.53;3.90;;;;;;;7.73;61.79;99247.38;4891066;29;20558;-79
2023/03/27 04:33:17;;;;;;;4.18;3.22;;;;;;;7.70;61.62;99260.63;4901698;29;20348;-78
2023/03/27 04:36:01;;;;;;;7.72;4.75;;;;;;;7.72;61.45;99258.78;4897216;29;20493;-79
2023/03/27 04:38:35;;;;;;;5.20;3.95;;;;;;;7.73;60.89;99270.91;4881545;29;20235;-79
2023/03/27 04:41:01;;;;;;;8.02;3.20;;;;;;;7.68;60.51;99265.09;4896970;29;20211;-79
2023/03/27 04:43:27;;;;;;;3.97;2.50;;;;;;;7.65;59.53;99274.88;4872223;29;21272;-79
2023/03/27 04:45:53;;;;;;;3.90;2.90;;;;;;;7.63;59.76;99288.03;4879122;29;20221;-79
2023/03/27 04:48:20;;;;;;;6.00;3.27;;;;;;;7.60;59.41;99293.44;4901112;29;20470;-79
2023/03/27 04:50:49;;;;;;;5.38;3.17;;;;;;;7.57;59.38;99296.22;4885837;29;20215;-80
2023/03/27 04:53:28;;;;;;;6.07;2.83;;;;;;;7.53;58.92;99300.78;4883674;29;20230;-80
2023/03/27 04:55:56;;;;;;;8.25;4.18;;;;;;;7.54;59.11;99317.31;4886599;29;20227;-80
2023/03/27 04:58:24;;;;;;;5.55;3.92;;;;;;;7.53;59.03;99321.69;4903415;29;20214;-80
2023/03/27 05:00:54;;;;;;;5.00;3.45;;;;;;;7.53;58.96;99331.28;4890543;29;20199;-80
2023/03/27 05:03:39;;;;;;;7.07;2.65;;;;;;;7.48;58.31;99342.03;4899461;29;20312;-80
2023/03/27 05:06:10;;;;;;;4.57;3.38;;;;;;;7.48;57.45;99336.78;4872956;29;20588;-79
2023/03/27 05:08:36;;;;;;;5.30;3.35;;;;;;;7.47;57.51;99347.31;4904741;29;20203;-80
2023/03/27 05:11:02;;;;;;;4.17;3.57;;;;;;;7.45;57.35;99357.00;4888146;29;20242;-80
2023/03/27 05:13:39;;;;;;;7.00;3.35;;;;;;;7.41;57.11;99363.34;4884569;29;20226;-80
2023/03/27 05:16:08;;;;;;;5.10;3.10;;;;;;;7.38;57.03;99373.97;4906121;29;20238;-80
2023/03/27 05:18:40;;;;;;;6.80;3.42;;;;;;;7.36;56.85;99379.25;4884190;29;20218;-81
2023/03/27 05:21:06;;;;;;;4.43;3.40;;;;;;;7.35;56.84;99390.66;4901562;29;20286;-81
2023/03/27 05:23:31;;;;;;;3.33;3.03;;;;;;;7.36;56.72;99394.94;4884862;29;20648;-81
2023/03/27 05:25:57;;;;;;;4.30;3.27;;;;;;;7.30;56.26;99390.03;4884169;29;20286;-81
2023/03/27 05:28:23;;;;;;;5.32;3.08;;;;;;;7.29;55.96;99394.44;4895742;29;20726;-80
2023/03/27 05:30:51;;;;;;;9.38;3.35;;;;;;;7.29;56.07;99399.66;4880824;29;20206;-80
2023/03/27 05:33:21;;;;;;;3.40;3.03;;;;;;;7.29;56.04;99407.50;4894757;29;20564;-81
2023/03/27 05:35:49;;;;;;;7.13;4.28;;;;;;;7.30;55.85;99405.72;4883890;29;20665;-81
2023/03/27 05:38:15;;;;;;;7.78;3.47;;;;;;;7.28;55.88;99407.56;4881042;29;20207;-80
2023/03/27 05:40:51;;;;;;;7.22;4.00;;;;;;;7.25;55.54;99413.78;4896888;29;20214;-80
2023/03/27 05:43:17;;;;;;;3.42;3.03;;;;;;;7.25;55.62;99419.03;4871219;29;20209;-80
2023/03/27 05:45:43;;;;;;;5.43;4.73;;;;;;;7.17;55.06;99421.19;4880632;29;20984;-81
2023/03/27 05:48:08;;;;;;;3.67;3.37;;;;;;;7.18;55.23;99424.66;4892872;29;20655;-81
2023/03/27 05:50:39;;;;;;;6.65;4.40;;;;;;;7.16;55.46;99434.34;4883277;29;20211;-81
2023/03/27 05:53:12;;;;;;;4.50;3.45;;;;;;;7.12;55.71;99433.66;4883366;29;20223;-81
2023/03/27 05:55:45;;;;;;;4.97;4.47;;;;;;;7.13;55.68;99440.56;4882667;29;20239;-80
2023/03/27 05:58:12;;;;;;;5.70;4.60;;;;;;;7.12;55.58;99454.53;4893171;29;20235;-81
2023/03/27 06:00:41;;;;;;;4.70;4.18;;;;;;;7.12;55.81;99465.00;4880699;29;20203;-81
2023/03/27 06:03:09;;;;;;;7.80;4.22;;;;;;;7.14;55.41;99467.53;4883136;29;20578;-81
2023/03/27 06:05:53;;;;;;;9.20;4.20;;;;;;;7.13;55.49;99477.16;4893449;29;20253;-81
2023/03/27 06:08:19;;;;;;;7.63;4.20;;;;;;;7.19;55.66;99483.81;4881846;29;20491;-81
2023/03/27 06:10:45;;;;;;;7.00;4.37;;;;;;;7.24;55.64;99487.88;4884312;29;20471;-81
2023/03/27 06:13:17;;;;;;;5.72;3.75;;;;;;;7.23;55.77;99490.56;4866984;29;20491;-81
2023/03/27 06:15:53;;;;;;;6.45;3.88;;;;;;;7.26;55.67;99501.72;4875445;29;20274;-81
2023/03/27 06:18:48;;;;;;;8.13;4.05;;;;;;;7.27;55.79;99516.44;4884958;29;20254;-80
2023/03/27 06:21:51;;;;;;;6.68;3.90;;;;;;;7.27;55.83;99521.69;4881010;29;20237;-82
2023/03/27 06:24:16;;;;;;;7.00;4.30;;;;;;;7.27;55.57;99524.28;4901088;29;20735;-81
2023/03/27 06:26:42;;;;;;;10.37;4.53;;;;;;;7.26;55.71;99533.06;4901438;29;20254;-81
2023/03/27 06:29:08;;;;;;;8.13;3.90;;;;;;;7.25;56.03;99536.59;4885805;29;20211;-81
2023/03/27 06:31:34;;;;;;;5.43;3.35;;;;;;;7.21;56.36;99536.81;4901317;29;20207;-80
2023/03/27 06:34:08;;;;;;;6.05;4.18;;;;;;;7.13;56.28;99545.06;4889345;29;20517;-80
2023/03/27 06:37:15;;;;;;;5.35;3.80;;;;;;;7.12;56.63;99558.19;4895115;29;20222;-80
2023/03/27 06:39:43;;;;;;;4.97;3.50;;;;;;;7.10;56.87;99550.41;4886162;29;20282;-80
2023/03/27 06:42:12;;;;;;;7.07;3.20;;;;;;;7.06;56.99;99551.50;4900585;29;20273;-80
2023/03/27 06:45:05;;;;;;;4.70;2.97;;;;;;;7.00;57.15;99567.47;4881031;29;20645;-80
2023/03/27 06:47:34;;;;;;;8.60;3.95;;;;;;;6.94;57.05;99571.25;4885029;29;20321;-80
2023/03/27 06:50:27;;;;;;;7.78;4.07;;;;;;;6.88;56.79;99581.97;4886291;29;20243;-81
2023/03/27 06:52:55;;;;;;;13.10;5.50;;;;;;;6.88;56.79;99589.81;4868650;29;20258;-80
2023/03/27 06:55:38;;;;;;;11.52;3.40;;;;;;;6.86;56.84;99587.28;4882077;29;20291;-80
2023/03/27 06:58:05;;;;;;;8.77;4.18;;;;;;;6.84;56.57;99596.94;4882486;29;20222;-80
2023/03/27 07:00:34;;;;;;;4.88;3.75;;;;;;;6.84;56.87;99596.94;4847619;29;20304;-80
2023/03/27 07:03:26;;;;;;;7.47;3.33;;;;;;;6.83;57.03;99597.88;4878383;29;20326;-80
2023/03/27 07:06:00;;;;;;;10.43;5.05;;;;;;;6.83;56.50;99608.31;4878143;29;20257;-80
2023/03/27 07:08:31;;;;;;;7.93;3.40;;;;;;;6.78;55.81;99610.31;4865352;29;20220;-80
2023/03/27 07:10:59;;;;;;;6.07;4.10;;;;;;;6.78;55.53;99623.34;4869341;29;20684;-79
2023/03/27 07:13:26;;;;;;;4.22;3.10;;;;;;;6.71;55.23;99627.16;4864404;29;20231;-80
2023/03/27 07:15:51;;;;;;;11.40;3.53;;;;;;;6.69;55.47;99621.16;4854373;29;20232;-79
2023/03/27 07:18:20;;;;;;;4.28;2.58;;;;;;;6.67;54.89;99633.47;4864492;29;20219;-79
2023/03/27 07:20:49;;;;;;;6.45;3.88;;;;;;;6.63;54.69;99639.75;4877388;29;20203;-79
2023/03/27 07:23:17;;;;;;;6.63;3.70;;;;;;;6.58;54.90;99644.31;4853425;29;20212;-79
2023/03/27 07:25:56;;;;;;;8.70;4.50;;;;;;;6.55;54.38;99653.13;4865012;29;20966;-80
2023/03/27 07:28:37;;;;;;;4.05;2.75;;;;;;;6.52;55.02;99655.06;4864700;29;20227;-80
2023/03/27 07:31:12;;;;;;;6.10;3.47;;;;;;;6.54;54.83;99666.28;4867463;29;20211;-80
2023/03/27 07:33:39;;;;;;;4.68;3.10;;;;;;;6.54;54.93;99676.72;4848516;29;20223;-81
2023/03/27 07:36:08;;;;;;;4.38;2.70;;;;;;;6.55;53.66;99683.63;4882308;29;20251;-82
2023/03/27 07:38:40;;;;;;;5.00;2.40;;;;;;;6.52;53.23;99689.81;4884934;29;20219;-82
2023/03/27 07:41:23;;;;;;;3.95;2.40;;;;;;;6.50;52.67;99691.66;4872111;29;20216;-81
2023/03/27 07:43:58;;;;;;;2.25;1.83;;;;;;;6.52;51.57;99692.44;4881063;29;20219;-81
2023/03/27 07:46:26;;;;;;;1.58;1.48;;;;;;;6.56;51.40;99691.38;4868234;29;20229;-81
2023/03/27 07:48:54;;;;;;;5.05;2.65;;;;;;;6.67;50.93;99701.34;4863300;29;20211;-81
2023/03/27 07:51:22;;;;;;;3.80;1.70;;;;;;;6.91;50.99;99701.94;4866985;29;20214;-81
2023/03/27 07:53:52;;;;;;;2.85;1.90;;;;;;;7.48;48.95;99712.25;4866723;29;20252;-81
2023/03/27 07:56:22;;;;;;;2.88;1.60;;;;;;;8.35;47.04;99717.44;4868396;29;20230;-81
2023/03/27 08:01:40;;;;;;;2.75;1.45;;;;;;;10.03;42.04;99733.38;4870797;29;20232;-82
2023/03/27 08:04:06;;;;;;;3.13;1.60;;;;;;;10.49;39.81;99737.69;4879890;29;20296;-80
2023/03/27 08:06:33;;;;;;;3.10;2.22;;;;;;;10.89;39.71;99735.22;4870095;29;20232;-80
2023/03/27 08:08:59;;;;;;;4.03;1.75;;;;;;;11.46;38.75;99748.22;4860728;29;20222;-79
2023/03/27 08:11:26;;;;;;;1.70;1.30;;;;;;;12.03;37.01;99758.47;4859002;29;20216;-80
2023/03/27 08:13:52;;;;;;;3.33;1.57;;;;;;;12.41;35.44;99757.66;4852766;29;20262;-79
2023/03/27 08:16:18;;;;;;;2.73;1.73;;;;;;;12.57;34.86;99760.09;4863347;29;20301;-79
2023/03/27 08:18:48;;;;;;;3.42;1.80;;;;;;;12.72;34.43;99769.56;4865273;29;20202;-80
2023/03/27 08:21:14;;;;;;;1.75;1.25;;;;;;;12.84;33.62;99760.78;4867567;29;20274;-80
2023/03/27 08:23:40;;;;;;;3.10;1.77;;;;;;;12.89;33.63;99762.25;4866151;29;20201;-79
2023/03/27 08:26:27;;;;;;;4.90;2.28;;;;;;;12.88;33.12;99761.44;4882288;29;20628;-80
2023/03/27 08:28:59;;;;;;;2.28;1.38;;;;;;;13.02;33.02;99763.09;4880816;29;21141;-81
2023/03/27 08:31:30;;;;;;;5.05;1.42;;;;;;;13.32;32.21;99767.13;4863445;29;20206;-80
2023/03/27 08:34:00;;;;;;;2.67;1.05;;;;;;;13.49;31.74;99770.22;4864295;29;20731;-80
2023/03/27 08:36:33;;;;;;;4.68;1.90;;;;;;;13.62;31.86;99775.44;4864371;29;20231;-80
2023/03/27 08:39:01;;;;;;;2.70;1.75;;;;;;;13.70;31.56;99761.69;4863925;29;20210;-82
2023/03/27 08:41:40;;;;;;;2.08;1.48;;;;;;;13.67;31.27;99778.59;4878818;29;20806;-80
2023/03/27 08:44:20;;;;;;;3.60;1.33;;;;;;;13.33;31.45;99788.13;4863296;29;20319;-80
2023/03/27 08:46:55;;;;;;;3.03;1.60;;;;;;;13.21;31.52;99786.34;4868276;29;20244;-81
2023/03/27 08:49:27;;;;;;;1.73;1.55;;;;;;;12.97;31.74;99791.56;4869024;29;20270;-79
2023/03/27 08:52:29;;;;;;;4.40;1.60;;;;;;;12.77;32.26;99790.31;4872502;29;20275;-81
2023/03/27 08:55:04;;;;;;;1.52;1.30;;;;;;;12.77;32.78;99793.81;4863055;29;20675;-79
2023/03/27 08:57:35;;;;;;;3.63;1.25;;;;;;;12.67;32.59;99803.31;4868865;29;20208;-81
2023/03/27 09:00:26;;;;;;;4.18;2.33;;;;;;;12.50;33.01;99795.69;4882225;29;20796;-81
2023/03/27 09:03:17;;;;;;;4.88;1.80;;;;;;;12.57;32.89;99786.44;4865100;29;20207;-81
2023/03/27 09:05:51;;;;;;;1.58;1.30;;;;;;;12.50;33.12;99801.84;4872034;29;20222;-81
2023/03/27 09:08:20;;;;;;;1.65;1.42;;;;;;;12.24;33.72;99800.97;4883189;29;20210;-82
2023/03/27 09:10:54;;;;;;;2.55;1.30;;;;;;;12.02;34.28;99806.81;4862787;29;20231;-80
2023/03/27 09:13:43;;;;;;;4.15;1.50;;;;;;;11.76;34.76;99819.03;4867813;29;20250;-81
2023/03/27 09:16:19;;;;;;;6.25;1.60;;;;;;;11.71;34.42;99821.94;4868365;29;20238;-81
2023/03/27 09:19:12;;;;;;;2.78;1.73;;;;;;;11.30;35.20;99828.09;4869163;29;20233;-80
2023/03/27 09:21:56;;;;;;;4.88;3.33;;;;;;;10.83;36.00;99834.50;4888047;29;20215;-80
2023/03/27 09:24:45;;;;;;;3.05;1.35;;;;;;;10.09;36.39;99847.66;4876064;29;20299;-81
2023/03/27 09:27:33;;;;;;;6.57;2.50;;;;;;;9.37;38.02;99847.34;4887491;29;20247;-81
2023/03/27 09:30:09;;;;;;;2.40;1.80;;;;;;;9.19;38.44;99849.16;4871311;29;20554;-81
2023/03/27 09:33:04;;;;;;;3.30;1.75;;;;;;;9.33;38.80;99855.44;4865763;29;20238;-81
2023/03/27 09:35:31;;;;;;;4.90;2.00;;;;;;;9.60;38.46;99853.06;4874944;29;20247;-80
2023/03/27 09:38:02;;;;;;;6.47;1.42;;;;;;;9.64;38.59;99859.81;4883361;29;20235;-81
2023/03/27 09:40:39;;;;;;;4.63;1.60;;;;;;;9.72;38.18;99865.47;4883704;29;20283;-81
2023/03/27 09:43:07;;;;;;;2.22;0.90;;;;;;;9.76;37.98;99867.03;4868931;29;20308;-81
2023/03/27 09:45:38;;;;;;;2.55;1.30;;;;;;;10.04;37.87;99865.44;4884472;29;20231;-81
2023/03/27 09:48:10;;;;;;;2.55;1.10;;;;;;;10.33;37.84;99871.69;4872479;29;20209;-81
2023/03/27 09:50:45;;;;;;;4.72;1.55;;;;;;;10.56;37.81;99873.81;4871885;29;20239;-81
2023/03/27 09:53:21;;;;;;;4.13;2.00;;;;;;;10.72;37.60;99865.84;4875619;29;20235;-82
2023/03/27 09:56:11;;;;;;;3.67;1.33;;;;;;;10.64;37.81;99881.22;4871347;29;20252;-80
2023/03/27 09:58:47;;;;;;;11.32;5.07;;;;;;;10.70;37.94;99872.97;4875191;29;20212;-81
2023/03/27 10:01:25;;;;;;;6.40;3.85;;;;;;;10.59;37.61;99875.41;4887980;29;20218;-81
2023/03/27 10:03:55;;;;;;;2.78;1.40;;;;;;;10.69;37.86;99876.53;4869877;29;20291;-81
2023/03/27 10:06:37;;;;;;;2.55;1.65;;;;;;;10.99;37.39;99873.84;4860269;29;20237;-81
2023/03/27 10:09:26;;;;;;;1.40;1.30;;;;;;;11.31;36.67;99884.16;4868341;29;20300;-81
2023/03/27 10:12:05;;;;;;;2.95;1.70;;;;;;;11.25;36.58;99885.38;4867118;29;20214;-81
2023/03/27 10:14:34;;;;;;;4.13;1.52;;;;;;;11.23;36.91;99876.75;4884938;29;20213;-80
2023/03/27 10:17:01;;;;;;;4.28;1.33;;;;;;;11.34;35.94;99880.47;4882528;29;20219;-81
2023/03/27 10:19:34;;;;;;;2.42;1.30;;;;;;;11.43;36.23;99886.03;4867859;29;20577;-81
2023/03/27 10:22:14;;;;;;;3.72;1.40;;;;;;;11.29;36.10;99897.41;4866723;29;20215;-80
2023/03/27 10:24:40;;;;;;;7.05;1.60;;;;;;;11.04;36.38;99894.56;4884284;29;20244;-80
2023/03/27 10:27:33;;;;;;;5.57;1.95;;;;;;;10.93;36.66;99884.72;4881028;29;20230;-82
2023/03/27 10:30:35;;;;;;;1.58;1.40;;;;;;;10.77;36.99;99890.03;4884003;29;20275;-81
2023/03/27 10:33:30;;;;;;;4.80;2.00;;;;;;;10.94;37.00;99893.47;4869785;29;20227;-81
2023/03/27 10:36:10;;;;;;;2.92;1.52;;;;;;;11.20;37.20;99908.47;4868215;29;20451;-81
2023/03/27 10:38:40;;;;;;;2.40;1.75;;;;;;;11.37;36.90;99904.81;4868295;29;21000;-81
2023/03/27 10:41:19;;;;;;;5.60;1.73;;;;;;;11.38;37.06;99921.44;4885518;29;20636;-81
2023/03/27 10:43:50;;;;;;;3.30;1.52;;;;;;;11.41;36.33;99919.47;4855296;29;20355;-81
2023/03/27 10:46:20;;;;;;;2.97;1.33;;;;;;;11.36;35.43;99928.56;4885964;29;20235;-81
2023/03/27 10:49:07;;;;;;;1.75;1.15;;;;;;;11.43;35.21;99924.63;4870196;29;20207;-81
2023/03/27 10:51:50;;;;;;;3.55;1.42;;;;;;;11.41;33.70;99931.78;4869319;29;20216;-81
2023/03/27 10:54:35;;;;;;;1.75;1.38;;;;;;;11.24;33.66;99931.03;4859245;29;20222;-81
2023/03/27 10:57:01;;;;;;;1.40;1.30;;;;;;;11.21;33.80;99935.63;4887086;29;20315;-80
2023/03/27 10:59:34;;;;;;;3.75;1.83;;;;;;;11.15;33.88;99936.84;4885547;29;20219;-80
2023/03/27 11:02:11;;;;;;;4.85;1.85;;;;;;;11.12;34.12;99929.13;4872717;29;20215;-81
2023/03/27 11:04:58;;;;;;;4.20;1.70;;;;;;;11.10;34.58;99935.41;4872467;29;20482;-81
2023/03/27 11:07:43;;;;;;;4.60;1.70;;;;;;;10.84;35.07;99938.69;4885010;29;20215;-81
2023/03/27 11:10:20;;;;;;;2.35;1.25;;;;;;;10.52;35.69;99951.06;4871101;29;20230;-81
2023/03/27 11:13:02;;;;;;;2.88;1.33;;;;;;;10.25;36.04;99950.84;4869162;29;20837;-81
2023/03/27 11:15:41;;;;;;;2.45;1.58;;;;;;;10.08;36.46;99953.59;4876497;29;20224;-81
2023/03/27 11:18:28;;;;;;;2.50;1.40;;;;;;;10.13;36.26;99956.81;4875773;29;20253;-81
2023/03/27 11:21:14;;;;;;;3.58;1.10;;;;;;;10.06;34.16;99950.19;4887618;29;20279;-81
2023/03/27 11:23:59;;;;;;;1.65;1.52;;;;;;;9.92;33.82;99959.69;4877093;29;20218;-81
2023/03/27 11:26:52;;;;;;;2.10;1.30;;;;;;;9.89;34.16;99953.78;4868447;29;20248;-81
2023/03/27 11:29:27;;;;;;;3.55;1.23;;;;;;;10.12;34.48;99949.84;4870008;29;20544;-81
2023/03/27 11:32:00;;;;;;;4.60;1.65;;;;;;;10.38;34.64;99953.66;4865240;29;20228;-81
2023/03/27 11:34:47;;;;;;;3.93;1.60;;;;;;;10.67;34.64;99954.59;4870611;29;20514;-81
2023/03/27 11:37:42;;;;;;;4.60;1.20;;;;;;;10.82;33.36;99964.19;4864468;29;20540;-80
2023/03/27 11:40:27;;;;;;;2.88;1.45;;;;;;;10.71;31.23;99958.72;4881571;29;20216;-80
2023/03/27 11:43:00;;;;;;;2.10;1.70;;;;;;;10.57;29.84;99964.78;4864234;29;20622;-80
2023/03/27 11:45:30;;;;;;;1.83;1.20;;;;;;;10.41;29.90;99970.06;4863443;29;20236;-80
2023/03/27 11:48:20;;;;;;;1.20;0.90;;;;;;;10.39;30.50;99971.09;4862472;29;20240;-80
2023/03/27 11:51:00;;;;;;;0.85;0.85;;;;;;;10.45;29.43;99972.53;4877652;29;20216;-80
2023/03/27 11:53:49;;;;;;;1.77;1.05;;;;;;;10.50;29.65;99967.84;4879872;29;20239;-80
2023/03/27 11:56:39;;;;;;;3.58;0.90;;;;;;;10.63;29.80;99974.09;4862663;29;20338;-81
2023/03/27 11:59:43;;;;;;;1.30;1.10;;;;;;;10.74;29.52;99969.06;4858725;29;20776;-81
2023/03/27 12:02:47;;;;;;;6.97;1.40;;;;;;;10.84;29.18;99974.63;4876264;29;20788;-81
2023/03/27 12:05:35;;;;;;;1.58;1.13;;;;;;;10.93;28.90;99975.88;4861900;29;20233;-81
2023/03/27 12:08:54;;;;;;;1.60;1.15;;;;;;;10.93;29.19;99978.50;4865036;29;20212;-81
2023/03/27 12:11:25;;;;;;;1.95;1.00;;;;;;;10.90;29.45;99973.41;4866117;29;20234;-80
2023/03/27 12:14:19;;;;;;;3.33;1.15;;;;;;;10.83;29.75;99976.41;4866178;29;20240;-80
2023/03/27 12:17:01;;;;;;;1.30;1.20;;;;;;;10.85;29.97;99987.69;4875138;29;20233;-80